Time;durP1;ratioP1;P1;durP2;ratioP2;P2;SDS_P1;SDS_P2;PMS_P1;PMS_P2;Temp;Humidity;BMP_temperature;BMP_pressure;BME280_temperature;BME280_humidity;BME280_pressure;Samples;Min_cycle;Max_cycle;Signal;HPM_P1;HPM_P2
2023/12/13 00:01:43;;;;;;;4.90;0.85;;;10.90;99.90;;;;;;5053307;28;20473;-75
2023/12/13 00:04:09;;;;;;;1.75;1.38;;;10.90;99.90;;;;;;5054193;28;20076;-75
2023/12/13 00:06:35;;;;;;;0.10;0.10;;;10.90;99.90;;;;;;5054524;28;20040;-75
2023/12/13 00:09:04;;;;;;;0.32;0.32;;;10.90;99.90;;;;;;5054159;28;20025;-75
2023/12/13 00:11:30;;;;;;;0.10;0.10;;;11.00;99.90;;;;;;5054245;28;20039;-75
2023/12/13 00:13:55;;;;;;;0.20;0.20;;;10.90;99.90;;;;;;5053638;28;20092;-75
2023/12/13 00:16:23;;;;;;;0.13;0.13;;;10.90;99.90;;;;;;5053073;28;20123;-75
2023/12/13 00:18:49;;;;;;;1.48;1.33;;;10.90;99.90;;;;;;5052866;28;20025;-75
2023/12/13 00:21:18;;;;;;;0.47;0.40;;;10.80;99.90;;;;;;5054100;28;20401;-75
2023/12/13 00:23:47;;;;;;;0.82;0.68;;;10.80;99.90;;;;;;5053773;28;20031;-75
2023/12/13 00:26:17;;;;;;;0.03;0.03;;;11.00;99.90;;;;;;5052651;28;20033;-75
2023/12/13 00:28:44;;;;;;;0.40;0.40;;;10.90;99.90;;;;;;5054027;28;20090;-77
2023/12/13 00:31:10;;;;;;;8.70;1.17;;;10.90;99.90;;;;;;5054049;28;20041;-76
2023/12/13 00:33:37;;;;;;;0.20;0.20;;;10.80;99.90;;;;;;5054002;28;20021;-75
2023/12/13 00:36:03;;;;;;;0.93;0.90;;;10.90;99.90;;;;;;5053230;28;20045;-76
2023/12/13 00:38:29;;;;;;;0.88;0.45;;;11.00;99.90;;;;;;5053587;28;20025;-76
2023/12/13 00:40:55;;;;;;;0.10;0.10;;;11.00;99.90;;;;;;5053398;28;20532;-76
2023/12/13 00:43:21;;;;;;;4.72;1.27;;;10.90;99.90;;;;;;5052432;28;20487;-76
2023/12/13 00:45:48;;;;;;;5.57;0.25;;;11.00;99.90;;;;;;5053726;28;20189;-76
2023/12/13 00:48:14;;;;;;;3.03;1.80;;;11.10;99.90;;;;;;5053735;28;20102;-77
2023/12/13 00:50:40;;;;;;;0.00;0.00;;;11.20;99.90;;;;;;5053621;28;20469;-76
2023/12/13 00:53:06;;;;;;;1.17;0.63;;;11.10;99.90;;;;;;5053241;28;20025;-76
2023/12/13 00:55:32;;;;;;;0.13;0.13;;;11.10;99.90;;;;;;5053247;28;20131;-76
2023/12/13 00:57:58;;;;;;;0.10;0.10;;;11.10;99.90;;;;;;5053641;28;20086;-77
2023/12/13 01:00:24;;;;;;;0.15;0.15;;;11.10;99.90;;;;;;5053145;28;20036;-77
2023/12/13 01:02:50;;;;;;;0.00;0.00;;;11.00;99.90;;;;;;5053517;28;20029;-76
2023/12/13 01:05:16;;;;;;;0.00;0.00;;;11.00;99.90;;;;;;5051676;28;20043;-76
2023/12/13 01:07:42;;;;;;;0.55;0.20;;;11.00;99.90;;;;;;5053375;28;20102;-76
2023/12/13 01:10:09;;;;;;;0.35;0.35;;;10.90;99.90;;;;;;5051580;28;20517;-76
2023/12/13 01:12:35;;;;;;;0.88;0.52;;;10.90;99.90;;;;;;5051969;28;20142;-76
2023/12/13 01:15:01;;;;;;;0.13;0.13;;;10.90;99.90;;;;;;5052984;28;20115;-76
2023/12/13 01:17:27;;;;;;;2.33;1.23;;;11.00;99.90;;;;;;5051858;28;20040;-77
2023/12/13 01:19:52;;;;;;;0.00;0.00;;;11.00;99.90;;;;;;5053005;28;20370;-76
2023/12/13 01:22:22;;;;;;;7.03;1.08;;;11.00;99.90;;;;;;5053079;28;20481;-76
2023/12/13 01:24:47;;;;;;;29.02;1.70;;;11.00;99.90;;;;;;5051674;28;20033;-76
2023/12/13 01:27:13;;;;;;;0.00;0.00;;;11.00;99.90;;;;;;5052884;28;20519;-76
2023/12/13 01:29:39;;;;;;;0.10;0.10;;;10.90;99.90;;;;;;5051642;28;20446;-77
2023/12/13 01:32:05;;;;;;;5.53;0.40;;;10.90;99.90;;;;;;5052734;28;20390;-76
2023/12/13 01:34:31;;;;;;;2.05;0.38;;;10.90;99.90;;;;;;5052855;28;20068;-76
2023/12/13 01:36:56;;;;;;;0.03;0.03;;;10.90;99.90;;;;;;5034803;28;20489;-76
2023/12/13 01:39:23;;;;;;;0.17;0.17;;;11.00;99.90;;;;;;5051362;28;20025;-77
2023/12/13 01:41:49;;;;;;;0.75;0.65;;;11.10;99.90;;;;;;5052789;28;20385;-76
2023/12/13 01:44:15;;;;;;;0.10;0.10;;;11.10;99.90;;;;;;5052195;28;20036;-76
2023/12/13 01:46:41;;;;;;;0.10;0.10;;;11.10;99.90;;;;;;5052936;28;20619;-76
2023/12/13 01:49:09;;;;;;;1.27;1.17;;;11.10;99.90;;;;;;5052406;28;20108;-76
2023/12/13 01:51:36;;;;;;;0.10;0.10;;;11.10;99.90;;;;;;5052480;28;20466;-76
2023/12/13 01:54:09;;;;;;;0.22;0.22;;;11.10;99.90;;;;;;5052126;28;20021;-77
2023/12/13 01:56:40;;;;;;;40.25;1.27;;;11.10;99.90;;;;;;5051350;28;20033;-77
2023/12/13 01:59:05;;;;;;;0.00;0.00;;;11.20;99.90;;;;;;5051338;28;20108;-76
2023/12/13 02:01:31;;;;;;;0.55;0.55;;;11.10;99.90;;;;;;5052640;28;20485;-76
2023/12/13 02:03:57;;;;;;;0.10;0.10;;;11.10;99.90;;;;;;5052193;28;20039;-77
2023/12/13 02:06:23;;;;;;;0.32;0.32;;;11.20;99.90;;;;;;5050534;28;20111;-76
2023/12/13 02:08:49;;;;;;;1.55;0.10;;;11.10;99.90;;;;;;5051513;28;20475;-77
2023/12/13 02:11:15;;;;;;;0.85;0.30;;;11.10;99.90;;;;;;5052476;28;20141;-76
2023/12/13 02:13:42;;;;;;;3.00;0.25;;;11.10;99.90;;;;;;5051309;28;20029;-75
2023/12/13 02:16:08;;;;;;;0.00;0.00;;;11.10;99.90;;;;;;5052226;28;20033;-76
2023/12/13 02:18:35;;;;;;;0.00;0.00;;;11.20;99.90;;;;;;5052382;28;20021;-76
2023/12/13 02:21:01;;;;;;;3.03;0.52;;;11.30;99.90;;;;;;5052248;28;20025;-76
2023/12/13 02:23:26;;;;;;;0.10;0.10;;;11.20;99.90;;;;;;5052167;28;20393;-76
2023/12/13 02:25:59;;;;;;;0.00;0.00;;;11.10;99.90;;;;;;5052464;28;20040;-76
2023/12/13 02:28:27;;;;;;;0.50;0.50;;;11.30;99.90;;;;;;5052047;28;20032;-76
2023/12/13 02:30:55;;;;;;;3.78;1.33;;;11.30;99.90;;;;;;5052466;28;20033;-75
2023/12/13 02:33:25;;;;;;;0.73;0.52;;;11.10;99.90;;;;;;5050876;28;20020;-75
2023/12/13 02:35:56;;;;;;;3.92;2.00;;;11.00;99.90;;;;;;5052112;28;20025;-75
2023/12/13 02:38:21;;;;;;;30.58;3.03;;;11.10;99.90;;;;;;5050966;28;20036;-75
2023/12/13 02:40:47;;;;;;;0.00;0.00;;;11.20;99.90;;;;;;5052373;28;20021;-75
2023/12/13 02:43:14;;;;;;;0.75;0.60;;;11.40;99.90;;;;;;5052009;28;20029;-75
2023/12/13 02:45:39;;;;;;;0.50;0.43;;;11.30;99.90;;;;;;5051897;28;20033;-75
2023/12/13 02:48:05;;;;;;;0.65;0.65;;;11.20;99.90;;;;;;5052077;28;20485;-75
2023/12/13 02:50:31;;;;;;;0.32;0.32;;;11.30;99.90;;;;;;5033989;28;20059;-75
2023/12/13 02:52:57;;;;;;;2.47;1.10;;;11.30;99.90;;;;;;5050662;28;20389;-75
2023/12/13 02:55:23;;;;;;;1.85;0.93;;;11.20;99.90;;;;;;5051901;28;20025;-75
2023/12/13 02:57:49;;;;;;;0.30;0.30;;;11.20;99.90;;;;;;5052117;28;20021;-75
2023/12/13 03:00:14;;;;;;;1.33;1.05;;;11.10;99.90;;;;;;5053068;28;20021;-75
2023/12/13 03:02:40;;;;;;;6.13;1.65;;;11.10;99.90;;;;;;5055577;28;20066;-75
2023/12/13 03:05:07;;;;;;;0.00;0.00;;;11.00;99.90;;;;;;5055432;28;20036;-75
2023/12/13 03:07:33;;;;;;;0.08;0.08;;;11.00;99.90;;;;;;5055334;28;20029;-75
2023/12/13 03:09:59;;;;;;;0.00;0.00;;;11.00;99.90;;;;;;5054569;28;20393;-75
2023/12/13 03:12:25;;;;;;;0.75;0.75;;;11.10;99.90;;;;;;5037382;28;20051;-74
2023/12/13 03:14:51;;;;;;;33.33;1.88;;;11.00;99.90;;;;;;5037409;28;20025;-75
2023/12/13 03:17:17;;;;;;;0.43;0.43;;;10.90;99.90;;;;;;5037663;28;20029;-75
2023/12/13 03:19:42;;;;;;;0.10;0.10;;;11.10;99.90;;;;;;5053605;28;20120;-75
2023/12/13 03:22:08;;;;;;;0.03;0.03;;;11.10;99.90;;;;;;5054308;28;20067;-75
2023/12/13 03:24:35;;;;;;;7.20;1.42;;;11.10;99.90;;;;;;5055156;28;20475;-75
2023/12/13 03:27:01;;;;;;;0.10;0.10;;;11.20;99.90;;;;;;5055012;28;20021;-75
2023/12/13 03:29:27;;;;;;;0.43;0.28;;;11.20;99.90;;;;;;5055178;28;20416;-75
2023/12/13 03:31:53;;;;;;;0.80;0.43;;;11.30;99.90;;;;;;5053809;28;20027;-75
2023/12/13 03:34:19;;;;;;;4.40;0.35;;;11.10;99.90;;;;;;5054868;28;20029;-74
2023/12/13 03:36:46;;;;;;;0.30;0.30;;;10.90;99.90;;;;;;5055058;28;20421;-75
2023/12/13 03:39:12;;;;;;;2.28;0.73;;;11.00;99.90;;;;;;5054972;28;20033;-75
2023/12/13 03:41:38;;;;;;;1.80;0.43;;;11.00;99.90;;;;;;5054978;28;20135;-75
2023/12/13 03:44:03;;;;;;;0.20;0.20;;;11.00;99.90;;;;;;5053331;28;20112;-75
2023/12/13 03:46:29;;;;;;;0.68;0.65;;;11.00;99.90;;;;;;5053402;28;20048;-75
2023/12/13 03:48:55;;;;;;;9.88;2.67;;;11.00;99.90;;;;;;5054598;28;20040;-76
2023/12/13 03:51:21;;;;;;;0.63;0.30;;;11.10;99.90;;;;;;5053548;28;20079;-74
2023/12/13 03:53:46;;;;;;;3.72;1.85;;;11.00;99.90;;;;;;5053379;28;20029;-76
2023/12/13 03:56:12;;;;;;;0.75;0.75;;;11.10;99.90;;;;;;5054585;28;20025;-76
2023/12/13 03:58:38;;;;;;;1.65;0.45;;;11.20;99.90;;;;;;5054323;28;20116;-76
2023/12/13 04:01:04;;;;;;;1.35;0.30;;;11.10;99.90;;;;;;5054719;28;20037;-76
2023/12/13 04:03:33;;;;;;;0.00;0.00;;;11.10;99.90;;;;;;5053983;28;20082;-76
2023/12/13 04:05:59;;;;;;;0.45;0.45;;;11.10;99.90;;;;;;5052949;28;20033;-76
2023/12/13 04:08:24;;;;;;;2.55;0.47;;;11.10;99.90;;;;;;5054223;28;20409;-76
2023/12/13 04:10:50;;;;;;;0.08;0.08;;;11.10;99.90;;;;;;5053931;28;20029;-76
2023/12/13 04:13:16;;;;;;;0.00;0.00;;;11.20;99.90;;;;;;5053764;28;20024;-76
2023/12/13 04:15:42;;;;;;;5.47;1.75;;;11.20;99.90;;;;;;5054499;28;20527;-76
2023/12/13 04:18:08;;;;;;;1.85;0.75;;;11.20;99.90;;;;;;5053779;28;20025;-75
2023/12/13 04:20:34;;;;;;;1.65;0.57;;;11.10;99.90;;;;;;5053007;28;20036;-76
2023/12/13 04:23:00;;;;;;;5.07;0.85;;;11.00;99.90;;;;;;5054144;28;20024;-75
2023/12/13 04:25:26;;;;;;;0.00;0.00;;;11.00;99.90;;;;;;5054068;28;20032;-76
2023/12/13 04:27:51;;;;;;;5.78;0.73;;;11.00;99.90;;;;;;5054486;28;20120;-76
2023/12/13 04:30:17;;;;;;;0.22;0.22;;;11.10;99.90;;;;;;5053779;28;20389;-76
2023/12/13 04:32:43;;;;;;;3.88;1.17;;;11.10;99.90;;;;;;5035756;28;20048;-76
2023/12/13 04:35:09;;;;;;;0.00;0.00;;;11.10;99.90;;;;;;5053781;28;20033;-76
2023/12/13 04:37:37;;;;;;;8.70;0.43;;;11.10;99.90;;;;;;5052745;28;20021;-76
2023/12/13 04:40:04;;;;;;;0.00;0.00;;;11.10;99.90;;;;;;5053724;28;20044;-76
2023/12/13 04:42:30;;;;;;;1.00;1.00;;;11.10;99.90;;;;;;5053542;28;20098;-76
2023/12/13 04:44:56;;;;;;;0.10;0.10;;;11.10;99.90;;;;;;5053646;28;20465;-76
2023/12/13 04:47:21;;;;;;;0.10;0.10;;;11.10;99.90;;;;;;5053277;28;20039;-76
2023/12/13 04:49:47;;;;;;;0.00;0.00;;;11.30;99.90;;;;;;5053507;28;20466;-76
2023/12/13 04:52:13;;;;;;;2.50;0.45;;;11.30;99.90;;;;;;5053435;28;20032;-76
2023/12/13 04:54:39;;;;;;;1.83;0.95;;;11.30;99.90;;;;;;5051828;28;20033;-76
2023/12/13 04:57:05;;;;;;;0.00;0.00;;;11.20;99.90;;;;;;5053346;28;20025;-76
2023/12/13 04:59:31;;;;;;;13.35;0.93;;;11.10;99.90;;;;;;5052124;28;20025;-76
2023/12/13 05:01:57;;;;;;;0.00;0.00;;;11.30;99.90;;;;;;5051955;28;20024;-76
2023/12/13 05:04:23;;;;;;;0.13;0.13;;;11.30;99.90;;;;;;5053225;28;20512;-76
2023/12/13 05:06:49;;;;;;;7.22;1.27;;;11.30;99.90;;;;;;5053199;28;20037;-75
2023/12/13 05:09:15;;;;;;;0.03;0.03;;;11.20;99.90;;;;;;5053033;28;20017;-75
2023/12/13 05:11:41;;;;;;;23.10;1.17;;;11.10;99.90;;;;;;5051759;28;20397;-75
2023/12/13 05:14:07;;;;;;;5.07;1.30;;;11.10;99.90;;;;;;5052956;28;20060;-76
2023/12/13 05:16:33;;;;;;;0.47;0.47;;;11.20;99.90;;;;;;5051388;28;20060;-75
2023/12/13 05:18:59;;;;;;;1.65;0.40;;;11.20;99.90;;;;;;5053071;28;20036;-75
2023/12/13 05:21:26;;;;;;;0.10;0.10;;;11.00;99.90;;;;;;5052961;28;20025;-75
2023/12/13 05:23:51;;;;;;;0.20;0.20;;;11.10;99.90;;;;;;5051289;28;20039;-75
2023/12/13 05:26:17;;;;;;;0.10;0.10;;;11.10;99.90;;;;;;5053056;28;20028;-75
2023/12/13 05:28:43;;;;;;;0.00;0.00;;;11.00;99.90;;;;;;5053010;28;20017;-75
2023/12/13 05:31:19;;;;;;;2.75;0.85;;;10.90;99.90;;;;;;5052509;28;20025;-75
2023/12/13 05:33:45;;;;;;;0.10;0.10;;;10.90;99.90;;;;;;5051656;28;20029;-75
2023/12/13 05:36:11;;;;;;;0.10;0.10;;;11.00;99.90;;;;;;5052871;28;20036;-76
2023/12/13 05:38:37;;;;;;;0.03;0.03;;;11.10;99.90;;;;;;5052658;28;20044;-75
2023/12/13 05:41:03;;;;;;;9.23;1.23;;;11.10;99.90;;;;;;5052902;28;20438;-75
2023/12/13 05:43:28;;;;;;;4.10;0.43;;;11.10;99.90;;;;;;5052657;28;20102;-75
2023/12/13 05:45:54;;;;;;;6.80;0.57;;;11.20;99.90;;;;;;5052409;28;20036;-75
2023/12/13 05:48:21;;;;;;;6.05;1.70;;;11.10;99.90;;;;;;5052878;28;20032;-76
2023/12/13 05:50:47;;;;;;;0.25;0.25;;;11.20;99.90;;;;;;5052556;28;20025;-76
2023/12/13 05:53:13;;;;;;;0.50;0.38;;;11.10;99.90;;;;;;5051347;28;20029;-76
2023/12/13 05:55:42;;;;;;;0.55;0.35;;;11.00;99.90;;;;;;5052271;28;20071;-76
2023/12/13 05:58:09;;;;;;;2.72;0.25;;;11.10;99.90;;;;;;5052621;28;20094;-76
2023/12/13 06:00:35;;;;;;;0.38;0.32;;;11.30;99.90;;;;;;5050807;28;20025;-76
2023/12/13 06:03:01;;;;;;;1.55;0.88;;;11.30;99.90;;;;;;5048579;28;20489;-76
2023/12/13 06:05:27;;;;;;;8.73;0.75;;;11.20;99.90;;;;;;5035075;28;20041;-76
2023/12/13 06:07:52;;;;;;;0.00;0.00;;;11.30;99.90;;;;;;5062377;28;20115;-77
2023/12/13 06:10:18;;;;;;;0.22;0.22;;;11.20;99.90;;;;;;5052464;28;20041;-76
2023/12/13 06:12:44;;;;;;;0.10;0.10;;;11.20;99.90;;;;;;5054374;28;20143;-76
2023/12/13 06:15:10;;;;;;;0.75;0.60;;;11.10;99.90;;;;;;5065149;28;20480;-76
2023/12/13 06:17:36;;;;;;;3.90;1.00;;;10.90;99.90;;;;;;5050620;28;20117;-76
2023/12/13 06:20:03;;;;;;;0.10;0.10;;;10.80;99.90;;;;;;5060073;28;20052;-76
2023/12/13 06:22:28;;;;;;;0.10;0.10;;;10.90;99.90;;;;;;5059728;28;20478;-76
2023/12/13 06:24:54;;;;;;;0.00;0.00;;;10.90;99.90;;;;;;5057015;28;20037;-76
2023/12/13 06:27:21;;;;;;;1.55;0.65;;;10.80;99.90;;;;;;5059659;28;20055;-76
2023/12/13 06:29:47;;;;;;;0.22;0.22;;;10.80;99.90;;;;;;5067850;28;20029;-76
2023/12/13 06:32:13;;;;;;;7.78;1.85;;;10.90;99.90;;;;;;5060366;28;20037;-76
2023/12/13 06:34:39;;;;;;;9.85;0.75;;;10.80;99.90;;;;;;5060480;28;20037;-76
2023/12/13 06:37:06;;;;;;;0.40;0.40;;;11.00;99.90;;;;;;5055840;28;20020;-76
2023/12/13 06:39:32;;;;;;;0.45;0.45;;;11.10;99.90;;;;;;5063469;28;20038;-76
2023/12/13 06:41:58;;;;;;;0.50;0.50;;;11.10;99.90;;;;;;5062377;28;20067;-76
2023/12/13 06:44:24;;;;;;;3.63;0.98;;;11.10;99.90;;;;;;5063759;28;20040;-76
2023/12/13 06:46:50;;;;;;;0.85;0.70;;;11.10;99.90;;;;;;5062420;28;20082;-76
2023/12/13 06:49:17;;;;;;;0.00;0.00;;;10.90;99.90;;;;;;5051755;28;20021;-76
2023/12/13 06:51:44;;;;;;;0.08;0.08;;;10.70;99.90;;;;;;5062960;28;20017;-75
2023/12/13 06:54:10;;;;;;;0.30;0.30;;;10.80;99.90;;;;;;5061944;28;20033;-75
2023/12/13 06:56:35;;;;;;;0.88;0.55;;;10.70;99.90;;;;;;5062405;28;20054;-75
2023/12/13 06:59:01;;;;;;;0.38;0.35;;;10.80;99.90;;;;;;5058111;28;20017;-75
2023/12/13 07:01:27;;;;;;;5.03;1.33;;;10.90;99.90;;;;;;5063249;28;20028;-75
2023/12/13 07:03:53;;;;;;;0.50;0.40;;;10.80;99.90;;;;;;5055801;28;20028;-75
2023/12/13 07:06:19;;;;;;;0.00;0.00;;;10.80;99.90;;;;;;5060569;28;20029;-76
2023/12/13 07:08:45;;;;;;;2.90;0.65;;;10.90;99.90;;;;;;5037080;28;20774;-76
2023/12/13 07:11:11;;;;;;;10.05;2.05;;;10.80;99.90;;;;;;5057365;28;20021;-76
2023/12/13 07:13:37;;;;;;;0.10;0.10;;;11.10;99.90;;;;;;5064650;28;20469;-75
2023/12/13 07:16:04;;;;;;;0.85;0.82;;;11.10;99.90;;;;;;5064191;28;20081;-75
2023/12/13 07:18:30;;;;;;;3.20;1.80;;;11.00;99.90;;;;;;5063728;28;20025;-75
2023/12/13 07:20:56;;;;;;;2.90;0.65;;;10.80;99.90;;;;;;5067155;28;20028;-76
2023/12/13 07:23:25;;;;;;;0.20;0.20;;;10.80;99.90;;;;;;5061118;28;20025;-76
2023/12/13 07:25:50;;;;;;;0.03;0.03;;;10.80;99.90;;;;;;5056636;28;20037;-73
2023/12/13 07:28:16;;;;;;;0.10;0.10;;;11.00;99.90;;;;;;5066876;28;20024;-76
2023/12/13 07:30:42;;;;;;;3.45;1.50;;;11.00;99.90;;;;;;5064796;28;20021;-75
2023/12/13 07:33:09;;;;;;;2.47;1.42;;;11.00;99.90;;;;;;5059842;28;20105;-75
2023/12/13 07:35:35;;;;;;;1.65;0.50;;;11.00;99.90;;;;;;5058146;28;20597;-76
2023/12/13 07:38:01;;;;;;;0.85;0.57;;;10.90;99.90;;;;;;5060218;28;20029;-76
2023/12/13 07:40:27;;;;;;;0.15;0.15;;;10.90;99.90;;;;;;5061162;28;20066;-76
2023/12/13 07:42:53;;;;;;;0.20;0.20;;;11.00;99.90;;;;;;5057251;28;20487;-75
2023/12/13 07:45:20;;;;;;;0.00;0.00;;;11.00;99.90;;;;;;5058392;28;20055;-75
2023/12/13 07:47:48;;;;;;;0.73;0.32;;;11.10;99.90;;;;;;5060152;28;20052;-73
2023/12/13 07:50:14;;;;;;;0.00;0.00;;;11.00;99.90;;;;;;5061138;28;20051;-75
2023/12/13 07:52:40;;;;;;;3.65;0.82;;;11.10;99.90;;;;;;5061018;28;20122;-77
2023/12/13 07:55:07;;;;;;;1.90;0.30;;;11.20;99.90;;;;;;5060384;28;20548;-79
2023/12/13 07:57:33;;;;;;;0.00;0.00;;;11.20;99.90;;;;;;5058820;28;20021;-79
2023/12/13 07:59:59;;;;;;;10.90;2.38;;;11.20;99.90;;;;;;5059165;28;20035;-79
2023/12/13 08:02:24;;;;;;;0.63;0.35;;;11.10;99.90;;;;;;5055770;28;20020;-78
2023/12/13 08:04:50;;;;;;;1.33;1.23;;;11.20;99.90;;;;;;5052608;28;20052;-79
2023/12/13 08:07:16;;;;;;;0.63;0.63;;;11.10;99.90;;;;;;5051817;28;20116;-78
2023/12/13 08:09:43;;;;;;;1.50;1.00;;;11.10;99.90;;;;;;5059916;28;20112;-80
2023/12/13 08:12:09;;;;;;;0.17;0.17;;;11.00;99.90;;;;;;5070922;28;20020;-79
2023/12/13 08:14:34;;;;;;;0.10;0.10;;;11.10;99.90;;;;;;5067021;28;20115;-77
2023/12/13 08:17:06;;;;;;;0.00;0.00;;;11.00;99.90;;;;;;5057703;28;20175;-76
2023/12/13 08:19:32;;;;;;;0.20;0.20;;;11.10;99.90;;;;;;5063812;28;20056;-76
2023/12/13 08:21:57;;;;;;;9.18;0.77;;;11.10;99.90;;;;;;5060251;28;20499;-77
2023/12/13 08:24:23;;;;;;;0.00;0.00;;;11.20;99.90;;;;;;5057739;28;20564;-76
2023/12/13 08:26:49;;;;;;;0.10;0.10;;;11.10;99.90;;;;;;5052290;28;20420;-76
2023/12/13 08:29:15;;;;;;;3.40;0.90;;;11.10;99.90;;;;;;5052552;28;20103;-77
2023/12/13 08:31:41;;;;;;;0.15;0.15;;;11.10;99.90;;;;;;5053849;28;20033;-76
2023/12/13 08:34:07;;;;;;;0.10;0.10;;;11.20;99.90;;;;;;5051619;28;20040;-76
2023/12/13 08:36:33;;;;;;;0.40;0.40;;;11.10;99.90;;;;;;5058849;28;20024;-77
2023/12/13 08:39:00;;;;;;;0.20;0.20;;;11.10;99.90;;;;;;5053625;28;20054;-76
2023/12/13 08:41:27;;;;;;;0.00;0.00;;;11.30;99.90;;;;;;5054527;28;20031;-76
2023/12/13 08:43:53;;;;;;;0.10;0.10;;;11.20;99.90;;;;;;5064719;28;20469;-75
2023/12/13 08:46:19;;;;;;;3.70;0.95;;;11.10;99.90;;;;;;5067190;28;20051;-76
2023/12/13 08:48:45;;;;;;;0.82;0.35;;;11.00;99.90;;;;;;5059017;28;20033;-76
2023/12/13 08:51:11;;;;;;;0.60;0.60;;;11.00;99.90;;;;;;5053235;28;20548;-75
2023/12/13 08:53:37;;;;;;;0.98;0.50;;;11.00;99.90;;;;;;5053727;28;20078;-76
2023/12/13 08:56:03;;;;;;;8.75;2.50;;;10.90;99.90;;;;;;5067856;28;20127;-76
2023/12/13 08:58:29;;;;;;;0.20;0.20;;;11.00;99.90;;;;;;5062642;28;20074;-76
2023/12/13 09:00:55;;;;;;;0.47;0.47;;;11.10;99.90;;;;;;5056862;28;20120;-76
2023/12/13 09:03:20;;;;;;;0.10;0.10;;;11.10;99.90;;;;;;5053373;28;20025;-76
2023/12/13 09:05:46;;;;;;;8.68;2.60;;;11.30;99.90;;;;;;5066667;28;20115;-75
2023/12/13 09:08:13;;;;;;;0.08;0.08;;;11.10;99.90;;;;;;5066053;28;20024;-76
2023/12/13 09:10:38;;;;;;;0.10;0.10;;;11.10;99.90;;;;;;5063610;28;20029;-76
2023/12/13 09:13:04;;;;;;;0.20;0.20;;;11.20;99.90;;;;;;5054893;28;20421;-75
2023/12/13 09:15:31;;;;;;;0.10;0.10;;;11.20;99.90;;;;;;5053433;28;20049;-76
2023/12/13 09:17:57;;;;;;;0.93;0.88;;;11.10;99.90;;;;;;5062995;28;20033;-76
2023/12/13 09:20:23;;;;;;;0.40;0.40;;;11.30;99.90;;;;;;5048024;28;20067;-76
2023/12/13 09:22:49;;;;;;;0.65;0.65;;;11.20;99.90;;;;;;5060106;28;20063;-76
2023/12/13 09:25:15;;;;;;;0.08;0.08;;;11.20;99.90;;;;;;5058872;28;20033;-76
2023/12/13 09:27:46;;;;;;;0.00;0.00;;;11.10;99.90;;;;;;5050106;28;20491;-76
2023/12/13 09:30:13;;;;;;;5.63;0.93;;;11.00;99.90;;;;;;5053833;28;20128;-76
2023/12/13 09:32:40;;;;;;;0.10;0.10;;;11.00;99.90;;;;;;5059650;28;20377;-76
2023/12/13 09:35:06;;;;;;;4.40;1.50;;;11.10;99.90;;;;;;5060650;28;20446;-76
2023/12/13 09:37:32;;;;;;;1.98;1.48;;;11.30;99.90;;;;;;5055238;28;20414;-75
2023/12/13 09:40:01;;;;;;;0.10;0.10;;;11.20;99.90;;;;;;5056958;28;20430;-76
2023/12/13 09:42:29;;;;;;;1.20;1.17;;;11.30;99.90;;;;;;5057746;28;20467;-76
2023/12/13 09:44:55;;;;;;;0.00;0.00;;;11.40;99.90;;;;;;5066055;28;20635;-77
2023/12/13 09:47:23;;;;;;;0.93;0.93;;;11.40;99.90;;;;;;5060018;28;20393;-77
2023/12/13 09:49:50;;;;;;;4.30;1.00;;;11.30;99.90;;;;;;5057079;28;20521;-76
2023/12/13 09:52:22;;;;;;;5.88;1.67;;;11.40;99.90;;;;;;5053120;28;20071;-76
2023/12/13 09:54:50;;;;;;;0.10;0.10;;;11.50;99.90;;;;;;5059413;28;20269;-77
2023/12/13 09:57:16;;;;;;;0.17;0.17;;;11.50;99.90;;;;;;5064546;28;20386;-76
2023/12/13 09:59:42;;;;;;;1.30;0.55;;;11.50;99.90;;;;;;5059243;28;20033;-77
2023/12/13 10:02:16;;;;;;;0.70;0.40;;;11.50;99.90;;;;;;5045178;28;20027;-75
2023/12/13 10:04:43;;;;;;;9.13;1.25;;;11.40;99.90;;;;;;5059375;28;20127;-75
2023/12/13 10:07:09;;;;;;;0.08;0.08;;;11.30;99.90;;;;;;5069056;28;20035;-76
2023/12/13 10:09:35;;;;;;;0.50;0.50;;;11.30;99.90;;;;;;5067095;28;20024;-75
2023/12/13 10:12:04;;;;;;;0.30;0.30;;;11.30;99.90;;;;;;5074004;28;20051;-75
2023/12/13 10:14:30;;;;;;;0.00;0.00;;;11.30;99.90;;;;;;5070677;28;20115;-76
2023/12/13 10:16:56;;;;;;;1.65;1.55;;;11.30;99.90;;;;;;5074909;28;20100;-76
2023/12/13 10:19:22;;;;;;;0.10;0.10;;;11.30;99.90;;;;;;5060864;28;20803;-76
2023/12/13 10:21:48;;;;;;;6.05;2.05;;;11.40;99.90;;;;;;5067114;28;20017;-75
2023/12/13 10:24:15;;;;;;;7.60;1.73;;;11.30;99.90;;;;;;5067497;28;20103;-75
2023/12/13 10:26:41;;;;;;;0.00;0.00;;;11.30;99.90;;;;;;5063132;28;20495;-75
2023/12/13 10:29:07;;;;;;;0.70;0.47;;;11.30;99.90;;;;;;5056383;28;20029;-75
2023/12/13 10:31:35;;;;;;;5.00;1.77;;;11.30;99.90;;;;;;5069301;28;20029;-75
2023/12/13 10:34:01;;;;;;;0.75;0.45;;;11.50;99.90;;;;;;5065259;28;20489;-75
2023/12/13 10:36:28;;;;;;;1.27;1.17;;;11.20;99.90;;;;;;5054617;28;20108;-76
2023/12/13 10:38:54;;;;;;;0.10;0.10;;;11.20;99.90;;;;;;5053997;28;20067;-75
2023/12/13 10:41:27;;;;;;;0.28;0.28;;;11.10;99.90;;;;;;5054489;28;20465;-75
2023/12/13 10:43:58;;;;;;;0.10;0.10;;;11.10;99.90;;;;;;5054871;28;20048;-75
2023/12/13 10:46:35;;;;;;;0.10;0.10;;;11.30;99.90;;;;;;5054323;28;20028;-75
2023/12/13 10:49:03;;;;;;;3.00;0.75;;;11.20;99.90;;;;;;5055528;28;20028;-75
2023/12/13 10:51:31;;;;;;;0.15;0.15;;;11.20;99.90;;;;;;5054893;28;20037;-75
2023/12/13 10:53:58;;;;;;;0.47;0.47;;;11.20;99.90;;;;;;5055587;28;20426;-75
2023/12/13 10:56:24;;;;;;;0.65;0.65;;;11.10;99.90;;;;;;5056155;28;20104;-75
2023/12/13 10:58:52;;;;;;;0.30;0.30;;;11.20;99.90;;;;;;5055630;28;20076;-75
2023/12/13 11:01:19;;;;;;;0.60;0.60;;;11.40;99.90;;;;;;5054472;28;20124;-75
2023/12/13 11:03:53;;;;;;;0.00;0.00;;;11.50;99.90;;;;;;5054881;28;20040;-75
2023/12/13 11:06:21;;;;;;;1.75;1.65;;;11.40;99.90;;;;;;5054382;28;20033;-75
2023/12/13 11:08:47;;;;;;;2.95;0.82;;;11.30;99.90;;;;;;5055602;28;20025;-75
2023/12/13 11:11:16;;;;;;;2.53;0.90;;;11.30;99.90;;;;;;5055500;28;20025;-75
2023/12/13 11:13:55;;;;;;;0.00;0.00;;;11.40;99.90;;;;;;5054181;28;20029;-76
2023/12/13 11:16:23;;;;;;;0.70;0.70;;;11.30;99.90;;;;;;5041649;28;20048;-75
2023/12/13 11:18:52;;;;;;;1.02;0.30;;;11.20;99.90;;;;;;5055127;28;20040;-75
2023/12/13 11:21:32;;;;;;;0.00;0.00;;;11.30;99.90;;;;;;5054590;28;20071;-75
2023/12/13 11:24:08;;;;;;;0.47;0.47;;;11.40;99.90;;;;;;5055317;28;20064;-76
2023/12/13 11:26:38;;;;;;;0.20;0.20;;;11.50;99.90;;;;;;5055223;28;20033;-75
2023/12/13 11:29:14;;;;;;;0.10;0.10;;;11.40;99.90;;;;;;5055569;28;20116;-75
2023/12/13 11:31:52;;;;;;;0.00;0.00;;;11.50;99.90;;;;;;5055383;28;20033;-76
2023/12/13 11:34:30;;;;;;;1.77;1.35;;;11.50;99.90;;;;;;5054900;28;20097;-75
2023/12/13 11:36:56;;;;;;;1.58;1.48;;;11.50;99.90;;;;;;5054323;28;20029;-75
2023/12/13 11:39:26;;;;;;;0.08;0.08;;;11.40;99.90;;;;;;5053405;28;20481;-75
2023/12/13 11:41:52;;;;;;;0.55;0.30;;;11.50;99.90;;;;;;5054865;28;20048;-75
2023/12/13 11:44:17;;;;;;;0.05;0.05;;;11.80;99.90;;;;;;5053512;28;20485;-75
2023/12/13 11:46:43;;;;;;;2.22;1.88;;;11.80;99.90;;;;;;5048449;28;20033;-75
2023/12/13 11:49:09;;;;;;;0.35;0.35;;;12.10;99.90;;;;;;5053679;28;20048;-75
2023/12/13 11:51:35;;;;;;;0.25;0.25;;;11.80;99.90;;;;;;5054739;28;20013;-75
2023/12/13 11:54:01;;;;;;;0.75;0.75;;;12.00;99.90;;;;;;5054537;28;20151;-76
2023/12/13 11:56:27;;;;;;;0.55;0.55;;;12.00;99.90;;;;;;5053425;28;20033;-75
2023/12/13 11:58:53;;;;;;;1.33;1.15;;;11.70;99.90;;;;;;5054623;28;20029;-75
2023/12/13 12:01:19;;;;;;;0.20;0.20;;;11.70;99.90;;;;;;5053262;28;20412;-75
2023/12/13 12:03:46;;;;;;;4.05;2.33;;;11.90;99.90;;;;;;5054199;28;20126;-75
2023/12/13 12:06:16;;;;;;;17.65;0.60;;;11.90;99.90;;;;;;5054444;28;20025;-75
2023/12/13 12:08:42;;;;;;;1.02;0.63;;;11.80;99.90;;;;;;5053183;28;20033;-75
2023/12/13 12:11:08;;;;;;;3.40;1.33;;;11.70;99.90;;;;;;5054580;28;20087;-76
2023/12/13 12:13:35;;;;;;;4.22;2.33;;;11.70;99.90;;;;;;5054396;28;20021;-75
2023/12/13 12:16:00;;;;;;;0.22;0.20;;;11.60;99.90;;;;;;5052766;28;20095;-75
2023/12/13 12:18:26;;;;;;;0.00;0.00;;;11.70;99.90;;;;;;5054124;28;20482;-75
2023/12/13 12:20:52;;;;;;;2.90;2.70;;;12.00;99.90;;;;;;5054166;28;20033;-75
2023/12/13 12:23:18;;;;;;;3.10;1.40;;;11.60;99.90;;;;;;5054265;28;20013;-75
2023/12/13 12:25:45;;;;;;;8.77;1.52;;;11.70;99.90;;;;;;5054010;28;20132;-75
2023/12/13 12:28:11;;;;;;;1.33;0.73;;;11.60;99.90;;;;;;5054021;28;20069;-75
2023/12/13 12:30:39;;;;;;;0.10;0.10;;;11.60;99.90;;;;;;5053621;28;20025;-75
2023/12/13 12:33:05;;;;;;;1.83;1.42;;;11.50;99.90;;;;;;5052841;28;20024;-75
2023/12/13 12:35:31;;;;;;;0.28;0.28;;;11.50;99.90;;;;;;5052558;28;20371;-76
2023/12/13 12:37:57;;;;;;;0.35;0.35;;;11.70;99.90;;;;;;5053865;28;20025;-75
2023/12/13 12:40:23;;;;;;;0.10;0.10;;;11.50;99.90;;;;;;5053713;28;20021;-75
2023/12/13 12:42:48;;;;;;;0.00;0.00;;;11.70;99.90;;;;;;5053974;28;20576;-75